Time;durP1;ratioP1;P1;durP2;ratioP2;P2;SDS_P1;SDS_P2;PMS_P1;PMS_P2;Temp;Humidity;BMP_temperature;BMP_pressure;BME280_temperature;BME280_humidity;BME280_pressure;Samples;Min_cycle;Max_cycle;Signal;HPM_P1;HPM_P2
2020/12/17 00:01:26;;;;;;;28.55;13.95;;;10.20;99.90;;;;;;4750518;30;20105;-80
2020/12/17 00:03:52;;;;;;;26.50;16.23;;;10.20;99.90;;;;;;4751639;30;20036;-80
2020/12/17 00:06:18;;;;;;;26.17;14.52;;;10.20;99.90;;;;;;4736092;30;20044;-79
2020/12/17 00:08:44;;;;;;;21.30;12.63;;;10.20;99.90;;;;;;4737969;30;20576;-80
2020/12/17 00:11:10;;;;;;;19.05;12.63;;;10.10;99.90;;;;;;4751710;30;20044;-81
2020/12/17 00:13:36;;;;;;;19.77;12.55;;;10.10;99.90;;;;;;4735560;30;20110;-79
2020/12/17 00:16:03;;;;;;;22.10;13.48;;;10.10;99.90;;;;;;4751991;30;20032;-80
2020/12/17 00:18:29;;;;;;;22.30;14.07;;;10.10;99.90;;;;;;4720688;30;20119;-81
2020/12/17 00:20:55;;;;;;;21.80;12.35;;;10.00;99.90;;;;;;4735482;30;20097;-80
2020/12/17 00:23:22;;;;;;;26.10;14.35;;;10.00;99.90;;;;;;4735529;30;20043;-80
2020/12/17 00:25:48;;;;;;;22.52;13.65;;;10.00;99.90;;;;;;4735917;30;20085;-80
2020/12/17 00:28:14;;;;;;;26.45;13.93;;;10.00;99.90;;;;;;4744777;30;20089;-81
2020/12/17 00:30:40;;;;;;;23.00;14.32;;;10.00;99.90;;;;;;4750377;30;20028;-80
2020/12/17 00:33:06;;;;;;;23.10;13.95;;;10.00;99.90;;;;;;4750884;30;20124;-80
2020/12/17 00:35:32;;;;;;;33.50;18.00;;;10.00;99.90;;;;;;4748321;30;20039;-80
2020/12/17 00:37:58;;;;;;;33.22;17.60;;;10.00;99.90;;;;;;4732336;30;20507;-80
2020/12/17 00:40:24;;;;;;;29.60;15.93;;;10.00;99.90;;;;;;4732355;30;20124;-80
2020/12/17 00:42:50;;;;;;;32.63;17.98;;;10.00;99.90;;;;;;4746800;30;20399;-80
2020/12/17 00:45:17;;;;;;;35.33;19.02;;;10.00;99.90;;;;;;4735273;30;20151;-80
2020/12/17 00:47:44;;;;;;;28.13;16.52;;;10.00;99.90;;;;;;4748486;30;20118;-79
2020/12/17 00:50:11;;;;;;;27.75;15.32;;;10.00;99.90;;;;;;4764677;30;20550;-80
2020/12/17 00:52:38;;;;;;;30.83;16.92;;;10.00;99.90;;;;;;4735315;30;20750;-80
2020/12/17 00:55:05;;;;;;;27.00;14.43;;;10.10;99.90;;;;;;4764259;30;20124;-80
2020/12/17 00:57:31;;;;;;;26.63;14.20;;;10.10;99.90;;;;;;4748168;30;20048;-81
2020/12/17 00:59:58;;;;;;;25.98;14.98;;;10.10;99.90;;;;;;4764521;30;20377;-79
2020/12/17 01:02:24;;;;;;;28.00;15.77;;;10.20;99.90;;;;;;4734903;30;20056;-80
2020/12/17 01:04:50;;;;;;;27.50;14.57;;;10.20;99.90;;;;;;4734853;30;20047;-80
2020/12/17 01:07:17;;;;;;;25.65;15.63;;;10.10;99.90;;;;;;4734500;30;20570;-80
2020/12/17 01:09:43;;;;;;;24.10;13.25;;;10.10;99.90;;;;;;4735049;30;20508;-81
2020/12/17 01:12:10;;;;;;;22.50;13.55;;;10.00;99.90;;;;;;4735035;30;20483;-80
2020/12/17 01:14:36;;;;;;;22.83;13.60;;;10.00;99.90;;;;;;4750200;30;20399;-80
2020/12/17 01:17:06;;;;;;;20.88;13.32;;;10.00;99.90;;;;;;4748866;30;20028;-79
2020/12/17 01:19:34;;;;;;;23.98;13.43;;;9.90;99.90;;;;;;4749135;30;20036;-80
2020/12/17 01:22:01;;;;;;;25.10;12.00;;;9.90;99.90;;;;;;4734461;30;20114;-80
2020/12/17 01:24:27;;;;;;;21.58;12.13;;;9.90;99.90;;;;;;4750481;30;20042;-80
2020/12/17 01:26:55;;;;;;;24.50;11.52;;;9.90;99.90;;;;;;4748725;30;20044;-80
2020/12/17 01:29:22;;;;;;;20.33;12.00;;;10.00;99.90;;;;;;4727540;30;20372;-80
2020/12/17 09:07:52;;;;;;;35.33;19.05;;;12.80;99.90;;;;;;4509315;24;20086;-80
2020/12/17 09:10:18;;;;;;;31.83;18.27;;;12.90;99.90;;;;;;4765707;30;20151;-80
2020/12/17 09:12:45;;;;;;;33.60;18.35;;;12.90;99.90;;;;;;4772709;30;20043;-79
2020/12/17 09:15:13;;;;;;;35.50;18.30;;;13.00;99.90;;;;;;4769269;29;20026;-78
2020/12/17 09:17:40;;;;;;;29.52;18.23;;;13.00;99.90;;;;;;4752946;30;20050;-81
2020/12/17 09:20:15;;;;;;;28.38;16.38;;;13.20;99.90;;;;;;4766732;30;20113;-79
2020/12/17 09:22:42;;;;;;;30.90;17.63;;;13.20;99.90;;;;;;4782053;30;20047;-81
2020/12/17 09:25:08;;;;;;;33.20;17.55;;;13.30;99.90;;;;;;4774550;29;20027;-81
2020/12/17 09:27:38;;;;;;;28.13;15.75;;;13.30;99.90;;;;;;4766549;30;20062;-80
2020/12/17 09:30:10;;;;;;;32.63;18.98;;;13.50;99.90;;;;;;4786032;29;20037;-80
2020/12/17 09:32:55;;;;;;;28.77;16.20;;;13.50;99.90;;;;;;4770454;30;20062;-81
2020/12/17 09:35:30;;;;;;;24.35;15.02;;;13.70;99.90;;;;;;4786208;30;20482;-83
2020/12/17 09:38:07;;;;;;;24.95;14.48;;;13.80;99.90;;;;;;4784522;29;20032;-82
2020/12/17 09:40:37;;;;;;;29.58;15.95;;;13.90;99.90;;;;;;4786192;30;20452;-82
2020/12/17 09:43:05;;;;;;;26.45;14.90;;;14.00;99.90;;;;;;4799634;29;20035;-81
2020/12/17 09:45:46;;;;;;;32.03;16.80;;;14.10;99.90;;;;;;4786083;30;20035;-80
2020/12/17 09:48:20;;;;;;;29.42;16.63;;;14.30;99.90;;;;;;4769339;29;20130;-81
2020/12/17 09:50:56;;;;;;;27.20;15.98;;;14.50;99.90;;;;;;4769730;30;20050;-80
2020/12/17 09:53:23;;;;;;;25.45;14.90;;;14.60;99.90;;;;;;4785900;29;20092;-81
2020/12/17 09:55:50;;;;;;;25.85;14.80;;;14.60;99.90;;;;;;4786033;30;20038;-83
2020/12/17 09:58:17;;;;;;;25.38;13.93;;;14.80;99.90;;;;;;4767506;30;20063;-82
2020/12/17 10:00:43;;;;;;;20.77;13.05;;;15.00;99.90;;;;;;4799695;29;20023;-84
2020/12/17 10:03:10;;;;;;;24.40;11.73;;;15.10;99.90;;;;;;4769876;30;20039;-81
2020/12/17 10:05:37;;;;;;;19.27;10.85;;;15.30;99.90;;;;;;4769782;30;20061;-81
2020/12/17 10:08:03;;;;;;;14.48;8.32;;;15.50;99.90;;;;;;4783785;29;20109;-83
2020/12/17 10:10:29;;;;;;;14.68;8.45;;;15.50;99.90;;;;;;4763694;30;20059;-84
2020/12/17 10:12:58;;;;;;;17.35;9.25;;;15.80;99.90;;;;;;4767371;30;20031;-84
2020/12/17 10:15:31;;;;;;;23.55;10.38;;;15.80;99.90;;;;;;4766547;30;20114;-84
2020/12/17 10:17:57;;;;;;;15.05;8.38;;;15.60;99.90;;;;;;4766062;30;20028;-81
2020/12/17 10:20:24;;;;;;;15.07;8.50;;;15.70;99.90;;;;;;4780943;29;20032;-81
2020/12/17 10:22:51;;;;;;;14.80;7.93;;;15.90;99.90;;;;;;4766349;30;20043;-81
2020/12/17 10:25:18;;;;;;;10.70;7.10;;;16.20;99.90;;;;;;4765384;30;20023;-82
2020/12/17 10:27:45;;;;;;;12.25;7.03;;;16.60;99.90;;;;;;4763822;30;20039;-80
2020/12/17 10:30:11;;;;;;;13.90;6.53;;;16.80;99.90;;;;;;4767106;30;20035;-81
2020/12/17 10:32:41;;;;;;;12.43;8.27;;;16.90;99.90;;;;;;4774660;29;20035;-81
2020/12/17 10:35:08;;;;;;;11.32;6.85;;;17.20;99.90;;;;;;4774156;30;20050;-81
2020/12/17 10:37:34;;;;;;;9.48;7.00;;;17.40;99.90;;;;;;4797155;29;20035;-82
2020/12/17 10:40:02;;;;;;;13.00;7.13;;;17.80;99.90;;;;;;4761124;30;20036;-81
2020/12/17 10:42:29;;;;;;;10.55;6.72;;;17.70;99.90;;;;;;4773008;30;20059;-82
2020/12/17 10:44:55;;;;;;;10.80;6.70;;;17.20;99.90;;;;;;4777352;29;20088;-81
2020/12/17 10:47:21;;;;;;;10.88;7.05;;;16.60;99.90;;;;;;4771254;30;20059;-83
2020/12/17 10:49:48;;;;;;;12.45;6.65;;;16.20;99.90;;;;;;4779498;29;20073;-81
2020/12/17 10:52:15;;;;;;;12.05;7.18;;;15.90;99.90;;;;;;4777689;29;20509;-81
2020/12/17 10:54:41;;;;;;;13.95;7.90;;;15.70;99.90;;;;;;4779510;30;20390;-83
2020/12/17 10:57:07;;;;;;;17.60;7.93;;;15.40;99.90;;;;;;4769741;29;20065;-82
2020/12/17 10:59:33;;;;;;;11.90;6.88;;;15.20;99.90;;;;;;4768741;30;20513;-82
2020/12/17 11:02:01;;;;;;;11.35;6.68;;;15.00;99.90;;;;;;4777829;30;20270;-81
2020/12/17 11:04:27;;;;;;;11.52;7.28;;;15.00;99.90;;;;;;4757859;29;20574;-82
2020/12/17 11:06:57;;;;;;;13.50;6.93;;;14.90;99.90;;;;;;4764906;30;20042;-80
2020/12/17 11:09:24;;;;;;;15.25;7.18;;;14.90;99.90;;;;;;4769403;30;20083;-81
2020/12/17 11:11:53;;;;;;;12.07;6.18;;;14.90;99.90;;;;;;4790133;29;20030;-80
2020/12/17 11:14:20;;;;;;;9.50;5.78;;;14.80;99.90;;;;;;4754153;29;20068;-81
2020/12/17 11:16:49;;;;;;;9.65;5.57;;;14.90;99.90;;;;;;4779038;29;20050;-81
2020/12/17 11:19:16;;;;;;;9.32;5.00;;;15.20;99.90;;;;;;4763355;29;20046;-81
2020/12/17 11:21:42;;;;;;;12.68;5.50;;;15.40;99.90;;;;;;4783925;29;20046;-82
2020/12/17 11:24:08;;;;;;;10.73;5.10;;;15.70;99.90;;;;;;4790553;29;20042;-81
2020/12/17 11:26:49;;;;;;;8.95;5.25;;;15.90;99.90;;;;;;4794201;29;20026;-81
2020/12/17 11:29:15;;;;;;;10.10;6.13;;;16.30;99.90;;;;;;4772209;29;20039;-80
2020/12/17 11:31:45;;;;;;;12.93;6.75;;;16.50;99.90;;;;;;4768692;30;20063;-81
2020/12/17 11:34:11;;;;;;;10.68;6.32;;;16.70;99.90;;;;;;4768167;30;20046;-80
2020/12/17 11:36:37;;;;;;;11.05;6.53;;;16.30;99.90;;;;;;4784537;30;20489;-80
2020/12/17 11:39:04;;;;;;;8.95;5.65;;;15.90;99.90;;;;;;4784392;29;20425;-83
2020/12/17 11:41:30;;;;;;;9.90;6.60;;;15.50;99.90;;;;;;4782490;30;20051;-79
2020/12/17 11:43:56;;;;;;;9.95;5.60;;;15.30;99.90;;;;;;4789364;29;20468;-80
2020/12/17 11:46:22;;;;;;;12.88;6.93;;;15.30;99.90;;;;;;4780120;30;20391;-81
2020/12/17 11:48:49;;;;;;;11.05;6.47;;;15.10;99.90;;;;;;4768640;30;20047;-80
2020/12/17 11:51:16;;;;;;;10.15;6.30;;;15.20;99.90;;;;;;4769635;30;20042;-83
2020/12/17 11:53:42;;;;;;;11.63;6.50;;;15.60;99.90;;;;;;4781268;29;20555;-80
2020/12/17 11:56:15;;;;;;;9.55;6.55;;;15.80;99.90;;;;;;4801183;29;20100;-78
2020/12/17 11:58:44;;;;;;;8.23;5.28;;;16.10;99.90;;;;;;4787317;29;20493;-81
2020/12/17 12:01:11;;;;;;;9.40;5.88;;;16.50;99.90;;;;;;4790612;29;20074;-81
2020/12/17 12:03:37;;;;;;;12.00;6.18;;;16.60;99.90;;;;;;4764769;30;20039;-83
2020/12/17 12:06:04;;;;;;;8.77;5.45;;;16.90;99.90;;;;;;4780721;29;20394;-81
2020/12/17 12:08:30;;;;;;;12.85;5.65;;;17.10;99.90;;;;;;4794756;29;20048;-81
2020/12/17 12:10:56;;;;;;;10.32;5.72;;;17.30;99.90;;;;;;4786924;29;20494;-81
2020/12/17 12:13:22;;;;;;;10.13;5.65;;;17.40;99.90;;;;;;4787726;29;20115;-82
2020/12/17 12:15:49;;;;;;;11.57;6.68;;;17.90;99.90;;;;;;4786184;29;20073;-82
2020/12/17 12:18:15;;;;;;;10.98;6.30;;;18.10;99.90;;;;;;4785670;29;20072;-80
2020/12/17 12:20:43;;;;;;;13.90;7.22;;;18.10;99.90;;;;;;4779520;29;20039;-81
2020/12/17 12:23:09;;;;;;;15.80;7.30;;;18.10;99.90;;;;;;4775354;30;20035;-80
2020/12/17 12:25:37;;;;;;;10.65;6.72;;;17.70;99.90;;;;;;4768609;29;20035;-81
2020/12/17 12:28:03;;;;;;;14.90;7.28;;;17.40;99.90;;;;;;4778419;29;20032;-79
2020/12/17 12:30:30;;;;;;;15.20;7.10;;;16.90;99.90;;;;;;4788946;29;20156;-80
2020/12/17 12:32:56;;;;;;;9.45;6.60;;;16.40;99.90;;;;;;4767340;29;20027;-79
2020/12/17 12:35:22;;;;;;;12.35;5.85;;;16.10;99.90;;;;;;4781339;29;20036;-80
2020/12/17 12:37:48;;;;;;;8.85;5.90;;;16.00;99.90;;;;;;4786497;30;20394;-80
2020/12/17 12:40:15;;;;;;;10.10;6.03;;;15.70;99.90;;;;;;4778642;29;20093;-80
2020/12/17 12:42:41;;;;;;;11.13;5.82;;;15.50;99.90;;;;;;4785711;29;20074;-80
2020/12/17 12:45:07;;;;;;;10.63;5.32;;;15.40;99.90;;;;;;4772658;30;20059;-80
2020/12/17 12:47:35;;;;;;;9.95;6.68;;;15.20;99.90;;;;;;4775116;29;20114;-80
2020/12/17 12:50:01;;;;;;;12.23;6.20;;;15.50;99.90;;;;;;4779809;29;20118;-79
2020/12/17 12:52:27;;;;;;;10.82;6.55;;;15.80;99.90;;;;;;4765121;30;20146;-80
2020/12/17 12:54:53;;;;;;;9.25;6.07;;;16.10;99.90;;;;;;4784769;29;20039;-80
2020/12/17 12:57:20;;;;;;;10.52;6.70;;;16.50;99.90;;;;;;4782062;29;20035;-80
2020/12/17 12:59:46;;;;;;;10.93;6.15;;;16.70;99.90;;;;;;4781448;29;20038;-80
2020/12/17 13:02:13;;;;;;;15.65;7.32;;;17.10;99.90;;;;;;4773103;29;20092;-79
2020/12/17 13:04:39;;;;;;;9.73;5.78;;;17.40;99.90;;;;;;4789102;29;20050;-79
2020/12/17 13:07:06;;;;;;;9.50;6.15;;;17.60;99.90;;;;;;4765224;30;20043;-79
2020/12/17 13:09:33;;;;;;;10.05;6.47;;;17.40;99.90;;;;;;4781861;29;20044;-79
2020/12/17 13:12:00;;;;;;;12.57;6.88;;;17.40;99.90;;;;;;4781874;29;20172;-79
2020/12/17 13:14:26;;;;;;;9.85;5.53;;;17.80;99.90;;;;;;4750669;30;20391;-80
2020/12/17 13:16:52;;;;;;;10.75;6.53;;;18.30;99.90;;;;;;4757887;30;20113;-80
2020/12/17 13:19:19;;;;;;;10.15;6.03;;;18.60;99.90;;;;;;4764305;30;20405;-79
2020/12/17 13:21:45;;;;;;;11.68;6.32;;;18.50;99.90;;;;;;4765271;29;20050;-80
2020/12/17 13:24:12;;;;;;;15.00;6.90;;;18.50;99.90;;;;;;4765106;29;20042;-79
2020/12/17 13:26:38;;;;;;;13.15;6.80;;;18.30;99.90;;;;;;4780627;29;20191;-79
2020/12/17 13:29:04;;;;;;;13.25;7.45;;;18.00;99.90;;;;;;4780265;29;20066;-79
2020/12/17 13:31:31;;;;;;;9.82;5.35;;;18.10;99.90;;;;;;4781875;29;20046;-80
2020/12/17 13:33:59;;;;;;;8.93;5.47;;;18.00;99.90;;;;;;4781423;29;20039;-79
2020/12/17 13:36:25;;;;;;;8.75;5.93;;;17.90;99.90;;;;;;4789010;29;20043;-79
2020/12/17 13:38:54;;;;;;;8.63;5.55;;;18.20;99.90;;;;;;4779597;30;20118;-79
2020/12/17 13:41:21;;;;;;;10.10;5.85;;;18.10;99.90;;;;;;4795152;29;20050;-80
2020/12/17 13:43:47;;;;;;;15.05;6.05;;;17.80;99.90;;;;;;4781438;29;20027;-79
2020/12/17 13:46:13;;;;;;;14.07;5.63;;;17.30;99.90;;;;;;4764695;29;20115;-80
2020/12/17 13:48:40;;;;;;;10.60;6.10;;;16.90;99.90;;;;;;4781282;29;20039;-79
2020/12/17 13:51:07;;;;;;;12.15;6.50;;;16.40;99.90;;;;;;4781510;29;20122;-78
2020/12/17 13:53:33;;;;;;;10.73;6.30;;;16.30;99.90;;;;;;4780472;29;20045;-79
2020/12/17 13:56:00;;;;;;;8.52;6.15;;;16.20;99.90;;;;;;4766797;29;20040;-79
2020/12/17 13:58:26;;;;;;;9.57;5.60;;;16.20;99.90;;;;;;4771868;30;20050;-78
2020/12/17 14:00:52;;;;;;;10.10;6.15;;;16.20;99.90;;;;;;4783063;30;20027;-79
2020/12/17 14:03:19;;;;;;;9.55;5.93;;;16.50;99.90;;;;;;4781553;29;20031;-79
2020/12/17 14:05:47;;;;;;;9.27;5.88;;;16.60;99.90;;;;;;4767383;30;20062;-79
2020/12/17 14:08:13;;;;;;;9.38;5.30;;;16.70;99.90;;;;;;4776431;30;20755;-79
2020/12/17 14:10:40;;;;;;;9.63;5.90;;;16.90;99.90;;;;;;4776835;29;20158;-79
2020/12/17 14:13:06;;;;;;;10.88;5.53;;;17.00;99.90;;;;;;4774905;29;20122;-79
2020/12/17 14:15:33;;;;;;;9.52;6.43;;;17.00;99.90;;;;;;4782679;29;20034;-80
2020/12/17 14:17:59;;;;;;;11.27;6.35;;;17.00;99.90;;;;;;4767980;30;20085;-79
2020/12/17 14:20:26;;;;;;;12.95;5.85;;;17.20;99.90;;;;;;4780132;30;20062;-79
2020/12/17 14:22:52;;;;;;;12.70;6.45;;;17.30;99.90;;;;;;4780756;29;20043;-79
2020/12/17 14:25:18;;;;;;;8.88;6.15;;;17.40;99.90;;;;;;4783991;30;20438;-80
2020/12/17 14:27:45;;;;;;;11.48;5.63;;;17.50;99.90;;;;;;4792050;29;20134;-80
2020/12/17 14:30:11;;;;;;;9.52;5.95;;;17.60;99.90;;;;;;4765549;29;20039;-78
2020/12/17 14:32:38;;;;;;;7.88;5.20;;;17.60;99.90;;;;;;4782946;29;20089;-79
2020/12/17 14:35:05;;;;;;;10.55;5.65;;;17.40;99.90;;;;;;4767662;30;20399;-79
2020/12/17 14:37:34;;;;;;;7.30;4.78;;;17.20;99.90;;;;;;4784786;29;20491;-79
2020/12/17 14:40:02;;;;;;;10.40;5.70;;;17.00;99.90;;;;;;4786818;29;20110;-79
2020/12/17 14:42:29;;;;;;;12.77;5.38;;;16.80;99.90;;;;;;4768339;30;20047;-79
2020/12/17 14:44:56;;;;;;;10.35;5.95;;;16.60;99.90;;;;;;4766920;30;20039;-79
2020/12/17 14:47:22;;;;;;;10.93;5.78;;;16.60;99.90;;;;;;4782261;29;20073;-79
2020/12/17 14:49:48;;;;;;;8.45;5.88;;;16.60;99.90;;;;;;4784204;30;20042;-79
2020/12/17 14:52:15;;;;;;;9.15;5.60;;;16.50;99.90;;;;;;4773955;29;20473;-79
2020/12/17 14:54:41;;;;;;;12.88;5.72;;;16.40;99.90;;;;;;4766462;30;20031;-79
2020/12/17 14:57:07;;;;;;;8.98;5.40;;;16.30;99.90;;;;;;4763760;30;20062;-78
2020/12/17 14:59:34;;;;;;;9.38;5.90;;;16.20;99.90;;;;;;4752967;30;20801;-78
2020/12/17 15:02:00;;;;;;;7.82;5.65;;;16.10;99.90;;;;;;4783417;29;20108;-79
2020/12/17 15:04:26;;;;;;;14.77;6.45;;;15.90;99.90;;;;;;4766127;30;20035;-79
2020/12/17 15:06:53;;;;;;;11.65;6.95;;;15.70;99.90;;;;;;4765788;30;20399;-78
2020/12/17 15:09:19;;;;;;;10.63;6.63;;;15.50;99.90;;;;;;4779811;29;20560;-78
2020/12/17 15:11:45;;;;;;;12.88;6.43;;;15.40;99.90;;;;;;4765943;30;20562;-78
2020/12/17 15:14:11;;;;;;;12.23;5.63;;;15.20;99.90;;;;;;4771748;29;20031;-79
2020/12/17 15:16:38;;;;;;;10.85;6.72;;;15.10;99.90;;;;;;4783401;30;20058;-78
2020/12/17 15:19:05;;;;;;;36.25;22.10;;;14.90;99.90;;;;;;4791962;29;20402;-78
2020/12/17 15:21:31;;;;;;;66.40;36.50;;;14.80;99.90;;;;;;4782151;30;20043;-78
2020/12/17 15:23:57;;;;;;;56.35;31.35;;;14.70;99.90;;;;;;4793069;29;20108;-79
2020/12/17 15:26:24;;;;;;;72.60;41.17;;;14.60;99.90;;;;;;4767172;30;20028;-79
2020/12/17 15:28:50;;;;;;;39.22;26.92;;;14.50;99.90;;;;;;4781124;30;20042;-79
2020/12/17 15:31:17;;;;;;;29.73;18.00;;;14.40;99.90;;;;;;4752156;30;20395;-79
2020/12/17 15:33:44;;;;;;;21.70;15.20;;;14.40;99.90;;;;;;4783447;30;20039;-78
2020/12/17 15:36:10;;;;;;;19.63;12.30;;;14.40;99.90;;;;;;4767372;29;20463;-78
2020/12/17 15:38:36;;;;;;;15.40;10.13;;;14.30;99.90;;;;;;4779969;30;20035;-78
2020/12/17 15:41:09;;;;;;;19.63;11.65;;;14.30;99.90;;;;;;4782169;30;20039;-79
2020/12/17 15:43:35;;;;;;;22.83;14.75;;;14.20;99.90;;;;;;4766653;30;20043;-79
2020/12/17 15:46:06;;;;;;;22.17;12.93;;;14.20;99.90;;;;;;4751782;30;20566;-78
2020/12/17 15:48:35;;;;;;;19.40;11.93;;;14.20;99.90;;;;;;4781541;29;20085;-80
2020/12/17 15:51:09;;;;;;;20.63;13.20;;;14.10;99.90;;;;;;4766417;30;20494;-79
2020/12/17 15:53:35;;;;;;;;;;;14.10;99.90;;;;;;4783183;29;20035;-80
2020/12/17 15:56:02;;;;;;;18.00;11.30;;;14.10;99.90;;;;;;4782857;30;20004;-80
2020/12/17 15:58:28;;;;;;;19.67;11.15;;;14.10;99.90;;;;;;4766052;30;20441;-80
2020/12/17 16:00:54;;;;;;;27.50;13.50;;;14.00;99.90;;;;;;4765890;29;20047;-79
2020/12/17 16:03:20;;;;;;;22.73;12.65;;;14.00;99.90;;;;;;4766336;30;20501;-80
2020/12/17 16:05:47;;;;;;;23.08;13.93;;;14.00;99.90;;;;;;4782524;29;20035;-80
2020/12/17 16:08:14;;;;;;;18.48;12.05;;;14.00;99.90;;;;;;4765163;29;20150;-79
2020/12/17 16:10:41;;;;;;;19.52;12.73;;;13.90;99.90;;;;;;4780959;30;20066;-79
2020/12/17 16:13:07;;;;;;;19.50;13.05;;;13.90;99.90;;;;;;4779212;30;20035;-80
2020/12/17 16:15:36;;;;;;;18.27;11.38;;;13.90;99.90;;;;;;4766793;30;20046;-80
2020/12/17 16:18:04;;;;;;;22.48;11.38;;;13.80;99.90;;;;;;4781850;29;20054;-79
2020/12/17 16:20:30;;;;;;;17.40;11.52;;;13.70;99.90;;;;;;4764448;30;20465;-79
2020/12/17 16:22:56;;;;;;;17.50;10.38;;;13.70;99.90;;;;;;4765742;29;20077;-79
2020/12/17 16:25:23;;;;;;;18.88;11.07;;;13.60;99.90;;;;;;4788785;29;20039;-79
2020/12/17 16:27:49;;;;;;;19.70;11.55;;;13.50;99.90;;;;;;4770623;29;20046;-79
2020/12/17 16:30:15;;;;;;;15.82;9.43;;;13.40;99.90;;;;;;4749838;29;20572;-79
2020/12/17 16:32:45;;;;;;;22.60;9.98;;;13.40;99.90;;;;;;4766464;30;20046;-79
2020/12/17 16:35:13;;;;;;;20.50;10.82;;;13.30;99.90;;;;;;4764109;30;20142;-79
2020/12/17 16:38:01;;;;;;;17.25;9.95;;;13.20;99.90;;;;;;4769955;30;20035;-79
2020/12/17 16:44:24;;;;;;;37.92;11.18;;;13.10;99.90;;;;;;4784186;29;20070;-79
2020/12/17 16:46:55;;;;;;;24.65;10.73;;;13.10;99.90;;;;;;4785693;29;20148;-79
2020/12/17 16:49:22;;;;;;;29.95;11.27;;;13.00;99.90;;;;;;4770262;30;20058;-79
2020/12/17 16:51:53;;;;;;;27.67;12.43;;;13.00;99.90;;;;;;4778708;29;20039;-78
2020/12/17 16:54:24;;;;;;;25.42;11.70;;;13.00;99.90;;;;;;4783840;29;20035;-79
2020/12/17 16:56:59;;;;;;;23.85;10.40;;;13.00;99.90;;;;;;4784454;29;20065;-79
2020/12/17 16:59:29;;;;;;;23.35;11.02;;;13.00;99.90;;;;;;4785179;29;20087;-79
2020/12/17 17:02:05;;;;;;;22.42;10.25;;;12.90;99.90;;;;;;4767072;30;20047;-78
2020/12/17 17:04:33;;;;;;;18.98;10.43;;;12.90;99.90;;;;;;4785679;29;20032;-79
2020/12/17 17:06:59;;;;;;;16.90;11.05;;;12.90;99.90;;;;;;4785370;29;20035;-80
2020/12/17 17:09:26;;;;;;;22.35;13.25;;;12.90;99.90;;;;;;4769496;30;20070;-79
2020/12/17 17:11:53;;;;;;;27.08;12.85;;;12.90;99.90;;;;;;4784939;29;20394;-78
2020/12/17 17:14:20;;;;;;;23.52;14.00;;;12.80;99.90;;;;;;4768550;30;20035;-77
2020/12/17 17:16:50;;;;;;;19.70;11.88;;;12.80;99.90;;;;;;4768993;30;20423;-79
2020/12/17 17:19:16;;;;;;;21.33;10.65;;;12.80;99.90;;;;;;4790980;29;20379;-79
2020/12/17 17:21:51;;;;;;;18.83;10.43;;;12.70;99.90;;;;;;4785023;29;20619;-79
2020/12/17 17:24:18;;;;;;;17.88;10.88;;;12.70;99.90;;;;;;4784392;29;20028;-79
2020/12/17 17:26:49;;;;;;;20.92;12.23;;;12.70;99.90;;;;;;4784603;29;20534;-80
2020/12/17 17:29:17;;;;;;;19.83;12.68;;;12.70;99.90;;;;;;4792318;29;20042;-79
2020/12/17 17:31:44;;;;;;;22.40;12.50;;;12.70;99.90;;;;;;4785612;29;20030;-79
2020/12/17 17:34:10;;;;;;;21.60;13.55;;;12.70;99.90;;;;;;4789567;29;20126;-79
2020/12/17 17:36:36;;;;;;;29.92;13.73;;;12.70;99.90;;;;;;4784863;30;20498;-79
2020/12/17 17:39:04;;;;;;;37.85;12.85;;;12.70;99.90;;;;;;4785285;30;20070;-79
2020/12/17 17:41:31;;;;;;;30.42;12.23;;;12.70;99.90;;;;;;4784724;29;20093;-79
2020/12/17 17:43:57;;;;;;;39.20;12.77;;;12.70;99.90;;;;;;4766289;30;20081;-79
2020/12/17 17:46:24;;;;;;;33.55;12.32;;;12.70;99.90;;;;;;4783651;29;20066;-79
2020/12/17 17:48:50;;;;;;;29.67;12.73;;;12.70;99.90;;;;;;4784754;30;20041;-79
2020/12/17 17:51:16;;;;;;;28.90;11.52;;;12.70;99.90;;;;;;4778685;30;20039;-79
2020/12/17 17:53:42;;;;;;;24.70;11.05;;;12.60;99.90;;;;;;4792495;29;20135;-79
2020/12/17 17:56:09;;;;;;;22.77;10.57;;;12.60;99.90;;;;;;4784346;29;20390;-79
2020/12/17 17:58:35;;;;;;;22.02;11.80;;;12.50;99.90;;;;;;4784629;29;20054;-79
2020/12/17 18:01:02;;;;;;;22.60;12.38;;;12.50;99.90;;;;;;4768574;30;20379;-79
2020/12/17 18:03:29;;;;;;;26.30;12.30;;;12.40;99.90;;;;;;4782194;30;20044;-79
2020/12/17 18:05:55;;;;;;;24.80;11.73;;;12.40;99.90;;;;;;4790949;29;20045;-79
2020/12/17 18:08:22;;;;;;;24.20;12.32;;;12.40;99.90;;;;;;4789814;29;20039;-79
2020/12/17 18:10:48;;;;;;;28.13;13.15;;;12.40;99.90;;;;;;4768115;30;20031;-79
2020/12/17 18:13:17;;;;;;;23.65;12.50;;;12.30;99.90;;;;;;4768233;30;20039;-79
2020/12/17 18:15:44;;;;;;;24.65;12.73;;;12.30;99.90;;;;;;4765612;30;20067;-79
2020/12/17 18:18:14;;;;;;;26.00;13.43;;;12.40;99.90;;;;;;4782436;29;20092;-80
2020/12/17 18:20:41;;;;;;;23.13;12.38;;;12.40;99.90;;;;;;4774088;29;20031;-79
2020/12/17 18:23:07;;;;;;;26.80;11.90;;;12.40;99.90;;;;;;4767558;29;20054;-79
2020/12/17 18:25:35;;;;;;;19.27;11.32;;;12.40;99.90;;;;;;4782343;29;20031;-79
2020/12/17 18:28:01;;;;;;;22.00;10.70;;;12.30;99.90;;;;;;4783343;30;20046;-80
2020/12/17 18:30:27;;;;;;;19.85;11.00;;;12.30;99.90;;;;;;4781427;29;20039;-79
2020/12/17 18:32:54;;;;;;;24.55;11.57;;;12.30;99.90;;;;;;4767565;30;20040;-79
2020/12/17 18:35:20;;;;;;;18.38;10.27;;;12.30;99.90;;;;;;4767615;30;20508;-79
2020/12/17 18:37:47;;;;;;;18.23;10.10;;;12.20;99.90;;;;;;4768167;30;20452;-79
2020/12/17 18:40:13;;;;;;;17.20;9.30;;;12.20;99.90;;;;;;4775409;30;20055;-79
2020/12/17 18:42:39;;;;;;;13.77;9.50;;;12.10;99.90;;;;;;4784112;30;20498;-80
2020/12/17 18:45:06;;;;;;;21.30;9.80;;;12.20;99.90;;;;;;4770341;29;20039;-79
2020/12/17 18:47:32;;;;;;;18.50;10.43;;;12.10;99.90;;;;;;4783333;29;20135;-79
2020/12/17 18:50:01;;;;;;;30.67;10.55;;;12.10;99.90;;;;;;4782642;29;20152;-79
2020/12/17 18:52:28;;;;;;;31.17;10.23;;;12.10;99.90;;;;;;4767343;30;20394;-79
2020/12/17 18:54:57;;;;;;;21.42;11.38;;;12.00;99.90;;;;;;4781676;30;20423;-79
2020/12/17 18:57:24;;;;;;;25.13;11.88;;;12.00;99.90;;;;;;4763343;29;20046;-79
2020/12/17 18:59:52;;;;;;;18.30;10.82;;;12.00;99.90;;;;;;4757849;30;20399;-78
2020/12/17 19:02:23;;;;;;;19.88;11.65;;;12.00;99.90;;;;;;4788035;29;20047;-78
2020/12/17 19:04:49;;;;;;;17.13;10.88;;;12.00;99.90;;;;;;4774340;29;20106;-80
2020/12/17 19:07:16;;;;;;;21.15;12.10;;;12.00;99.90;;;;;;4770010;29;20602;-79
2020/12/17 19:09:42;;;;;;;23.40;11.45;;;12.00;99.90;;;;;;4766204;30;20076;-79
2020/12/17 19:12:08;;;;;;;18.45;10.95;;;12.00;99.90;;;;;;4751147;30;20066;-79
2020/12/17 19:14:34;;;;;;;19.27;11.55;;;12.00;99.90;;;;;;4789112;29;20042;-79
2020/12/17 19:17:05;;;;;;;19.38;10.07;;;12.00;99.90;;;;;;4764506;30;20039;-80
2020/12/17 19:19:32;;;;;;;27.23;10.52;;;12.00;99.90;;;;;;4777754;30;20468;-79
2020/12/17 19:21:58;;;;;;;20.88;10.95;;;12.00;99.90;;;;;;4739293;30;20422;-80
2020/12/17 19:24:24;;;;;;;31.13;11.55;;;12.00;99.90;;;;;;4789854;29;20039;-79
2020/12/17 19:26:50;;;;;;;29.00;12.32;;;12.00;99.90;;;;;;4776072;30;20062;-79
2020/12/17 19:29:17;;;;;;;25.65;11.13;;;12.00;99.90;;;;;;4781897;29;20043;-79
2020/12/17 19:31:43;;;;;;;20.15;9.98;;;11.90;99.90;;;;;;4780084;29;20034;-78
2020/12/17 19:34:09;;;;;;;19.70;9.57;;;11.90;99.90;;;;;;4775569;30;20050;-79
2020/12/17 19:36:36;;;;;;;24.38;11.30;;;11.80;99.90;;;;;;4770384;29;20426;-80
2020/12/17 19:39:04;;;;;;;17.95;10.30;;;11.80;99.90;;;;;;4765669;30;20024;-80
2020/12/17 19:41:31;;;;;;;20.65;11.88;;;11.80;99.90;;;;;;4773488;29;20339;-79
2020/12/17 19:43:58;;;;;;;21.48;11.48;;;11.80;99.90;;;;;;4781275;29;20032;-80
2020/12/17 19:46:24;;;;;;;21.77;12.82;;;11.80;99.90;;;;;;4782846;29;20024;-78
2020/12/17 19:48:51;;;;;;;24.52;14.52;;;11.80;99.90;;;;;;4769516;29;20440;-80
2020/12/17 19:51:17;;;;;;;24.60;13.88;;;11.80;99.90;;;;;;4781831;30;20497;-79
2020/12/17 19:53:43;;;;;;;24.73;15.38;;;11.80;99.90;;;;;;4793083;29;20079;-79
2020/12/17 19:56:10;;;;;;;35.65;21.80;;;11.80;99.90;;;;;;4771336;29;20499;-78
2020/12/17 19:58:36;;;;;;;36.10;21.80;;;11.80;99.90;;;;;;4765251;30;20035;-79
2020/12/17 20:01:02;;;;;;;45.28;23.42;;;11.80;99.90;;;;;;4765861;29;20035;-78
2020/12/17 20:03:28;;;;;;;46.72;26.73;;;11.80;99.90;;;;;;4779028;30;20031;-79
2020/12/17 20:05:55;;;;;;;45.90;25.75;;;11.70;99.90;;;;;;4792375;29;20490;-79
2020/12/17 20:08:24;;;;;;;63.92;34.50;;;11.80;99.90;;;;;;4763916;30;20114;-79
2020/12/17 20:10:50;;;;;;;58.50;34.67;;;11.70;99.90;;;;;;4780626;29;20035;-78
2020/12/17 20:13:18;;;;;;;50.55;27.73;;;11.70;99.90;;;;;;4769493;30;20115;-79